< < Back
Terminal Aerodrome Forecast


Current Version              Previous Versions:   1  2  3  4  5  6  7  8  9  

Terminal Aerodrome Forecast

754
FTUS42 KJAX 262100 AAA
TAFSSI
TAF AMD
KSSI 262151Z 2622/2718 04012KT P6SM SCT025=

Latest METAR

582
SAUS70 KWBC 271700
MTRSSI
METAR KSSI 271653Z AUTO 05011G15KT 10SM CLR 29/17 A3003 RMK AO2 SLP169
T02890172


USA.gov is the U.S. government's official web portal to all federal, state and local government web resources and services.